Terminal Aerodrome Forecast
Issued by NWS

Home | Current Version | Previous Version | Text Only | Print | Product List | Glossary On
Versions: 1 2 3 4 5 6 7 8 9 10 11 12
666
FTUS42 TJSJ 221728
TAFJMZ
TAF
TJMZ 221728Z 2218/2318 26010KT P6SM VCSH SCT030
     FM222230 06005KT P6SM FEW025 SCT040
     FM231400 28009KT P6SM FEW030
      AMD NOT SKED=

USA.gov is the U.S. government's official web portal to all federal, state and local government web resources and services.